sensor_id;sensor_type;location;lat;lon;timestamp;pressure;altitude;pressure_sealevel;temperature;humidity
10668;BME280;5382;42.136;24.796;2022-10-20T00:02:15;100149.88;;;16.55;66.90
10668;BME280;5382;42.136;24.796;2022-10-20T00:05:09;99989.03;;;15.65;67.96
10668;BME280;5382;42.136;24.796;2022-10-20T00:07:52;100023.16;;;15.62;68.55
10668;BME280;5382;42.136;24.796;2022-10-20T00:22:54;100108.53;;;16.49;74.51
10668;BME280;5382;42.136;24.796;2022-10-20T00:25:21;100116.97;;;16.54;74.94
10668;BME280;5382;42.136;24.796;2022-10-20T00:27:48;99996.50;;;15.72;74.65
10668;BME280;5382;42.136;24.796;2022-10-20T00:30:15;100062.06;;;16.32;75.44
10668;BME280;5382;42.136;24.796;2022-10-20T00:32:42;100112.91;;;16.50;75.73
10668;BME280;5382;42.136;24.796;2022-10-20T00:35:09;100101.75;;;16.74;76.01
10668;BME280;5382;42.136;24.796;2022-10-20T00:37:36;100109.63;;;16.76;76.82
10668;BME280;5382;42.136;24.796;2022-10-20T00:40:05;100044.59;;;16.48;77.15
10668;BME280;5382;42.136;24.796;2022-10-20T00:42:32;100070.00;;;16.62;77.23
10668;BME280;5382;42.136;24.796;2022-10-20T00:45:00;99906.38;;;15.75;77.83
10668;BME280;5382;42.136;24.796;2022-10-20T00:47:34;100034.63;;;16.50;78.40
10668;BME280;5382;42.136;24.796;2022-10-20T00:50:07;100056.47;;;16.73;78.55
10668;BME280;5382;42.136;24.796;2022-10-20T00:52:37;100016.44;;;16.53;78.73
10668;BME280;5382;42.136;24.796;2022-10-20T00:55:11;100055.31;;;16.85;78.71
10668;BME280;5382;42.136;24.796;2022-10-20T00:57:43;100074.50;;;16.81;78.95
10668;BME280;5382;42.136;24.796;2022-10-20T01:00:13;100115.69;;;17.15;78.98
10668;BME280;5382;42.136;24.796;2022-10-20T01:02:41;100084.09;;;17.01;78.87
10668;BME280;5382;42.136;24.796;2022-10-20T01:05:09;100053.22;;;16.89;79.22
10668;BME280;5382;42.136;24.796;2022-10-20T01:07:36;100096.53;;;17.20;79.58
10668;BME280;5382;42.136;24.796;2022-10-20T01:10:05;100016.13;;;16.66;80.10
10668;BME280;5382;42.136;24.796;2022-10-20T01:12:38;99985.56;;;16.41;80.71
10668;BME280;5382;42.136;24.796;2022-10-20T01:15:13;100077.50;;;16.95;81.01
10668;BME280;5382;42.136;24.796;2022-10-20T01:17:53;100098.78;;;17.25;81.12
10668;BME280;5382;42.136;24.796;2022-10-20T01:23:52;100039.69;;;16.90;82.87
10668;BME280;5382;42.136;24.796;2022-10-20T01:26:36;100113.97;;;17.24;83.96
10668;BME280;5382;42.136;24.796;2022-10-20T01:29:15;100110.22;;;17.17;84.88
10668;BME280;5382;42.136;24.796;2022-10-20T01:31:49;100100.19;;;17.19;85.84
10668;BME280;5382;42.136;24.796;2022-10-20T01:34:25;99988.50;;;16.48;86.54
10668;BME280;5382;42.136;24.796;2022-10-20T01:36:59;100109.22;;;17.18;86.86
10668;BME280;5382;42.136;24.796;2022-10-20T01:39:32;100053.50;;;16.86;87.40
10668;BME280;5382;42.136;24.796;2022-10-20T01:42:03;100095.75;;;17.10;87.94
10668;BME280;5382;42.136;24.796;2022-10-20T01:44:34;100073.56;;;16.99;88.37
10668;BME280;5382;42.136;24.796;2022-10-20T01:47:02;100034.25;;;16.72;88.50
10668;BME280;5382;42.136;24.796;2022-10-20T01:49:31;100089.72;;;16.98;88.95
10668;BME280;5382;42.136;24.796;2022-10-20T01:51:59;100118.41;;;17.06;90.06
10668;BME280;5382;42.136;24.796;2022-10-20T01:54:27;100071.81;;;16.81;90.59
10668;BME280;5382;42.136;24.796;2022-10-20T01:57:09;100086.84;;;16.82;91.09
10668;BME280;5382;42.136;24.796;2022-10-20T02:00:00;100090.22;;;16.84;91.53
10668;BME280;5382;42.136;24.796;2022-10-20T02:02:51;100063.94;;;16.79;92.00
10668;BME280;5382;42.136;24.796;2022-10-20T02:05:34;100109.00;;;17.02;92.64
10668;BME280;5382;42.136;24.796;2022-10-20T02:08:08;100104.63;;;17.00;93.40
10668;BME280;5382;42.136;24.796;2022-10-20T02:10:42;100132.81;;;16.95;94.02
10668;BME280;5382;42.136;24.796;2022-10-20T02:13:11;100075.50;;;16.60;94.81
10668;BME280;5382;42.136;24.796;2022-10-20T02:15:55;99968.84;;;15.82;95.84
10668;BME280;5382;42.136;24.796;2022-10-20T02:18:25;100048.81;;;16.41;96.57
10668;BME280;5382;42.136;24.796;2022-10-20T02:20:55;100134.13;;;16.81;97.20
10668;BME280;5382;42.136;24.796;2022-10-20T02:23:23;100158.00;;;16.83;97.51
10668;BME280;5382;42.136;24.796;2022-10-20T02:25:51;99983.59;;;15.86;97.93
10668;BME280;5382;42.136;24.796;2022-10-20T02:28:21;100159.31;;;16.78;98.40
10668;BME280;5382;42.136;24.796;2022-10-20T02:30:50;100092.81;;;16.46;98.67
10668;BME280;5382;42.136;24.796;2022-10-20T02:33:18;100067.69;;;16.29;98.68
10668;BME280;5382;42.136;24.796;2022-10-20T02:35:49;100147.47;;;16.71;98.82
10668;BME280;5382;42.136;24.796;2022-10-20T02:38:16;100161.25;;;16.57;99.40
10668;BME280;5382;42.136;24.796;2022-10-20T02:40:43;100096.53;;;16.16;99.64
10668;BME280;5382;42.136;24.796;2022-10-20T03:27:32;100163.09;;;15.98;100.00
10668;BME280;5382;42.136;24.796;2022-10-20T03:29:59;100157.06;;;15.96;100.00
10668;BME280;5382;42.136;24.796;2022-10-20T03:32:27;100197.00;;;16.27;100.00
10668;BME280;5382;42.136;24.796;2022-10-20T03:34:54;100182.19;;;16.13;100.00
10668;BME280;5382;42.136;24.796;2022-10-20T03:37:21;100193.75;;;16.23;100.00
10668;BME280;5382;42.136;24.796;2022-10-20T03:39:48;100137.66;;;15.84;100.00
10668;BME280;5382;42.136;24.796;2022-10-20T03:42:16;100206.41;;;16.21;100.00
10668;BME280;5382;42.136;24.796;2022-10-20T03:44:45;100175.44;;;15.89;100.00
10668;BME280;5382;42.136;24.796;2022-10-20T03:47:12;100178.25;;;15.98;100.00
10668;BME280;5382;42.136;24.796;2022-10-20T03:49:39;100209.19;;;16.20;100.00
10668;BME280;5382;42.136;24.796;2022-10-20T03:52:06;100187.38;;;15.85;100.00
10668;BME280;5382;42.136;24.796;2022-10-20T03:54:34;100212.88;;;16.19;100.00
10668;BME280;5382;42.136;24.796;2022-10-20T03:57:02;100192.56;;;15.87;100.00
10668;BME280;5382;42.136;24.796;2022-10-20T03:59:30;100245.75;;;16.19;100.00
10668;BME280;5382;42.136;24.796;2022-10-20T04:01:58;100234.06;;;16.20;100.00
10668;BME280;5382;42.136;24.796;2022-10-20T04:04:25;100167.59;;;15.88;100.00
10668;BME280;5382;42.136;24.796;2022-10-20T04:06:53;100228.44;;;16.23;100.00
10668;BME280;5382;42.136;24.796;2022-10-20T04:09:19;100232.13;;;16.22;100.00
10668;BME280;5382;42.136;24.796;2022-10-20T04:11:47;100208.78;;;16.24;100.00
10668;BME280;5382;42.136;24.796;2022-10-20T04:14:14;100087.97;;;15.43;100.00
10668;BME280;5382;42.136;24.796;2022-10-20T04:16:41;100223.69;;;16.27;100.00
10668;BME280;5382;42.136;24.796;2022-10-20T04:19:09;100131.53;;;15.63;100.00
10668;BME280;5382;42.136;24.796;2022-10-20T04:21:36;100182.31;;;15.92;100.00
10668;BME280;5382;42.136;24.796;2022-10-20T04:24:03;100134.91;;;15.65;100.00
10668;BME280;5382;42.136;24.796;2022-10-20T04:26:31;100221.72;;;16.19;100.00
10668;BME280;5382;42.136;24.796;2022-10-20T04:29:00;100215.50;;;16.09;100.00
10668;BME280;5382;42.136;24.796;2022-10-20T04:31:27;100196.78;;;15.89;100.00
10668;BME280;5382;42.136;24.796;2022-10-20T04:33:54;100134.78;;;15.57;100.00
10668;BME280;5382;42.136;24.796;2022-10-20T04:36:22;100240.97;;;16.23;100.00
10668;BME280;5382;42.136;24.796;2022-10-20T04:38:50;100085.44;;;15.32;100.00
10668;BME280;5382;42.136;24.796;2022-10-20T04:41:23;100134.34;;;15.52;100.00
10668;BME280;5382;42.136;24.796;2022-10-20T04:43:54;100280.19;;;16.22;100.00
10668;BME280;5382;42.136;24.796;2022-10-20T04:46:25;100248.00;;;16.24;100.00
10668;BME280;5382;42.136;24.796;2022-10-20T04:49:03;99993.31;;;14.58;99.96
10668;BME280;5382;42.136;24.796;2022-10-20T04:51:34;100129.09;;;15.40;99.59
10668;BME280;5382;42.136;24.796;2022-10-20T04:54:01;100280.31;;;16.21;99.04
10668;BME280;5382;42.136;24.796;2022-10-20T04:56:28;100271.59;;;16.28;98.99
10668;BME280;5382;42.136;24.796;2022-10-20T04:58:56;100295.19;;;16.23;98.84
10668;BME280;5382;42.136;24.796;2022-10-20T05:01:25;100196.75;;;15.70;98.18
10668;BME280;5382;42.136;24.796;2022-10-20T05:03:53;100156.19;;;15.45;98.09
10668;BME280;5382;42.136;24.796;2022-10-20T05:06:22;100247.75;;;15.86;98.50
10668;BME280;5382;42.136;24.796;2022-10-20T05:08:56;100280.72;;;16.16;97.91
10668;BME280;5382;42.136;24.796;2022-10-20T05:11:26;100270.47;;;16.11;98.05
10668;BME280;5382;42.136;24.796;2022-10-20T05:14:09;100267.16;;;15.88;97.31
10668;BME280;5382;42.136;24.796;2022-10-20T05:16:45;100304.75;;;16.16;97.68
10668;BME280;5382;42.136;24.796;2022-10-20T05:19:16;100141.75;;;15.08;96.96
10668;BME280;5382;42.136;24.796;2022-10-20T05:21:43;100193.09;;;15.40;97.21
10668;BME280;5382;42.136;24.796;2022-10-20T05:24:13;100257.28;;;15.79;97.33
10668;BME280;5382;42.136;24.796;2022-10-20T05:26:41;100286.81;;;15.87;97.74
10668;BME280;5382;42.136;24.796;2022-10-20T05:29:09;100270.63;;;15.79;98.12
10668;BME280;5382;42.136;24.796;2022-10-20T05:31:38;100209.19;;;15.29;97.26
10668;BME280;5382;42.136;24.796;2022-10-20T05:34:06;100332.31;;;16.17;97.27
10668;BME280;5382;42.136;24.796;2022-10-20T05:36:35;100327.69;;;16.19;96.89
10668;BME280;5382;42.136;24.796;2022-10-20T05:39:03;100326.38;;;15.82;96.69
10668;BME280;5382;42.136;24.796;2022-10-20T05:41:32;100247.47;;;15.49;96.33
10668;BME280;5382;42.136;24.796;2022-10-20T05:44:00;100231.69;;;15.36;96.42
10668;BME280;5382;42.136;24.796;2022-10-20T05:46:30;100379.25;;;16.19;96.35
10668;BME280;5382;42.136;24.796;2022-10-20T05:48:59;100355.78;;;16.23;96.35
10668;BME280;5382;42.136;24.796;2022-10-20T05:51:28;100369.53;;;16.18;96.71
10668;BME280;5382;42.136;24.796;2022-10-20T05:53:57;100285.16;;;15.65;96.57
10668;BME280;5382;42.136;24.796;2022-10-20T05:56:25;100371.25;;;16.19;96.11
10668;BME280;5382;42.136;24.796;2022-10-20T05:58:56;100372.19;;;16.18;96.82
10668;BME280;5382;42.136;24.796;2022-10-20T06:01:25;100378.22;;;16.10;96.46
10668;BME280;5382;42.136;24.796;2022-10-20T06:03:54;100387.09;;;16.21;97.04
10668;BME280;5382;42.136;24.796;2022-10-20T06:06:22;100389.22;;;16.17;96.72
10668;BME280;5382;42.136;24.796;2022-10-20T06:08:50;100399.34;;;16.23;96.82
10668;BME280;5382;42.136;24.796;2022-10-20T06:11:18;100391.59;;;16.20;97.03
10668;BME280;5382;42.136;24.796;2022-10-20T06:13:47;100374.63;;;15.90;97.16
10668;BME280;5382;42.136;24.796;2022-10-20T06:16:18;100403.00;;;16.22;96.98
10668;BME280;5382;42.136;24.796;2022-10-20T06:22:01;100439.28;;;16.25;96.95
10668;BME280;5382;42.136;24.796;2022-10-20T06:24:28;100422.97;;;16.28;96.56
10668;BME280;5382;42.136;24.796;2022-10-20T06:26:55;100412.03;;;16.31;96.15
10668;BME280;5382;42.136;24.796;2022-10-20T06:29:22;100380.59;;;16.04;95.88
10668;BME280;5382;42.136;24.796;2022-10-20T06:31:50;100384.81;;;16.06;96.00
10668;BME280;5382;42.136;24.796;2022-10-20T06:34:19;100413.91;;;16.09;94.87
10668;BME280;5382;42.136;24.796;2022-10-20T06:36:47;100410.00;;;16.13;93.75
10668;BME280;5382;42.136;24.796;2022-10-20T06:39:15;100433.03;;;16.45;93.88
10668;BME280;5382;42.136;24.796;2022-10-20T06:41:45;100434.19;;;16.52;92.58
10668;BME280;5382;42.136;24.796;2022-10-20T06:44:13;100395.31;;;16.39;91.83
10668;BME280;5382;42.136;24.796;2022-10-20T06:46:40;100434.47;;;16.59;91.71
10668;BME280;5382;42.136;24.796;2022-10-20T06:49:08;100444.63;;;16.65;90.83
10668;BME280;5382;42.136;24.796;2022-10-20T06:51:36;100412.25;;;16.58;90.72
10668;BME280;5382;42.136;24.796;2022-10-20T06:54:04;100445.00;;;16.82;89.79
10668;BME280;5382;42.136;24.796;2022-10-20T06:56:32;100456.22;;;16.85;88.60
10668;BME280;5382;42.136;24.796;2022-10-20T06:59:00;100447.09;;;16.88;88.41
10668;BME280;5382;42.136;24.796;2022-10-20T07:01:28;100443.91;;;16.94;88.22
10668;BME280;5382;42.136;24.796;2022-10-20T07:03:57;100455.44;;;17.04;87.59
10668;BME280;5382;42.136;24.796;2022-10-20T07:06:27;100455.16;;;17.07;85.28
10668;BME280;5382;42.136;24.796;2022-10-20T07:08:56;100435.44;;;17.08;85.52
10668;BME280;5382;42.136;24.796;2022-10-20T07:11:24;100468.22;;;17.00;84.72
10668;BME280;5382;42.136;24.796;2022-10-20T07:13:53;100440.97;;;17.07;84.93
10668;BME280;5382;42.136;24.796;2022-10-20T07:16:22;100457.41;;;17.21;84.42
10668;BME280;5382;42.136;24.796;2022-10-20T07:18:49;100419.81;;;17.04;83.59
10668;BME280;5382;42.136;24.796;2022-10-20T07:21:18;100456.47;;;17.32;82.57
10668;BME280;5382;42.136;24.796;2022-10-20T07:23:47;100455.16;;;17.27;80.97
10668;BME280;5382;42.136;24.796;2022-10-20T07:26:16;100461.38;;;17.37;81.62
10668;BME280;5382;42.136;24.796;2022-10-20T07:28:47;100461.53;;;17.45;80.90
10668;BME280;5382;42.136;24.796;2022-10-20T07:31:16;100439.97;;;17.47;81.13
10668;BME280;5382;42.136;24.796;2022-10-20T07:33:44;100417.03;;;17.44;79.10
10668;BME280;5382;42.136;24.796;2022-10-20T07:36:12;100425.47;;;17.49;78.32
10668;BME280;5382;42.136;24.796;2022-10-20T07:38:39;100453.19;;;17.67;78.23
10668;BME280;5382;42.136;24.796;2022-10-20T07:41:08;100456.72;;;17.78;77.72
10668;BME280;5382;42.136;24.796;2022-10-20T07:43:35;100465.03;;;17.75;76.47
10668;BME280;5382;42.136;24.796;2022-10-20T07:46:02;100417.97;;;17.62;76.60
10668;BME280;5382;42.136;24.796;2022-10-20T07:48:31;100454.47;;;17.93;75.70
10668;BME280;5382;42.136;24.796;2022-10-20T07:51:13;100451.38;;;17.87;75.44
10668;BME280;5382;42.136;24.796;2022-10-20T07:53:40;100439.94;;;17.95;75.09
10668;BME280;5382;42.136;24.796;2022-10-20T07:56:09;100403.16;;;17.78;74.70
10668;BME280;5382;42.136;24.796;2022-10-20T07:58:36;100437.34;;;18.13;73.47
10668;BME280;5382;42.136;24.796;2022-10-20T08:01:04;100444.06;;;17.90;73.00
10668;BME280;5382;42.136;24.796;2022-10-20T08:03:32;100431.78;;;17.97;73.30
10668;BME280;5382;42.136;24.796;2022-10-20T08:05:59;100475.69;;;18.14;72.84
10668;BME280;5382;42.136;24.796;2022-10-20T08:08:26;100422.34;;;17.83;72.59
10668;BME280;5382;42.136;24.796;2022-10-20T08:10:54;100452.53;;;18.22;72.11
10668;BME280;5382;42.136;24.796;2022-10-20T08:13:24;100337.13;;;17.69;71.34
10668;BME280;5382;42.136;24.796;2022-10-20T08:15:53;100399.44;;;18.18;69.30
10668;BME280;5382;42.136;24.796;2022-10-20T08:18:20;100410.00;;;18.09;67.92
10668;BME280;5382;42.136;24.796;2022-10-20T08:20:47;100448.06;;;18.50;67.83
10668;BME280;5382;42.136;24.796;2022-10-20T08:23:14;100424.53;;;18.44;67.72
10668;BME280;5382;42.136;24.796;2022-10-20T08:25:41;100409.31;;;18.45;66.94
10668;BME280;5382;42.136;24.796;2022-10-20T08:28:08;100418.19;;;18.73;65.58
10668;BME280;5382;42.136;24.796;2022-10-20T08:30:37;100441.38;;;19.10;64.77
10668;BME280;5382;42.136;24.796;2022-10-20T08:33:04;100366.00;;;18.77;62.35
10668;BME280;5382;42.136;24.796;2022-10-20T08:35:31;100438.72;;;19.10;62.47
10668;BME280;5382;42.136;24.796;2022-10-20T08:37:59;100446.09;;;19.08;62.08
10668;BME280;5382;42.136;24.796;2022-10-20T08:40:28;100416.78;;;18.96;62.19
10668;BME280;5382;42.136;24.796;2022-10-20T08:42:56;100437.78;;;19.01;61.94
10668;BME280;5382;42.136;24.796;2022-10-20T08:45:26;100438.56;;;19.11;61.99
10668;BME280;5382;42.136;24.796;2022-10-20T08:47:57;100421.31;;;19.14;61.51
10668;BME280;5382;42.136;24.796;2022-10-20T08:50:25;100429.06;;;19.17;60.92
10668;BME280;5382;42.136;24.796;2022-10-20T08:52:58;100400.00;;;18.94;60.36
10668;BME280;5382;42.136;24.796;2022-10-20T08:55:28;100398.09;;;19.05;60.19
10668;BME280;5382;42.136;24.796;2022-10-20T08:57:58;100388.44;;;19.30;59.62
10668;BME280;5382;42.136;24.796;2022-10-20T09:00:26;100439.72;;;19.63;58.53
10668;BME280;5382;42.136;24.796;2022-10-20T09:03:00;100393.03;;;19.37;57.69
10668;BME280;5382;42.136;24.796;2022-10-20T09:05:30;100421.59;;;19.65;57.21
10668;BME280;5382;42.136;24.796;2022-10-20T09:07:59;100437.16;;;19.79;56.95
10668;BME280;5382;42.136;24.796;2022-10-20T09:10:31;100441.91;;;19.85;56.39
10668;BME280;5382;42.136;24.796;2022-10-20T09:13:00;100443.81;;;19.93;55.81
10668;BME280;5382;42.136;24.796;2022-10-20T09:15:28;100448.25;;;20.02;55.02
10668;BME280;5382;42.136;24.796;2022-10-20T09:18:00;100419.81;;;19.91;54.76
10668;BME280;5382;42.136;24.796;2022-10-20T09:20:32;100451.50;;;20.14;54.24
10668;BME280;5382;42.136;24.796;2022-10-20T09:22:59;100393.78;;;19.92;54.30
10668;BME280;5382;42.136;24.796;2022-10-20T09:25:26;100415.00;;;20.03;54.39
10668;BME280;5382;42.136;24.796;2022-10-20T09:27:54;100401.47;;;19.87;53.97
10668;BME280;5382;42.136;24.796;2022-10-20T09:30:23;100426.84;;;20.18;53.76
10668;BME280;5382;42.136;24.796;2022-10-20T09:32:51;100438.97;;;20.22;53.04
10668;BME280;5382;42.136;24.796;2022-10-20T09:35:34;100427.25;;;20.32;52.62
10668;BME280;5382;42.136;24.796;2022-10-20T09:38:04;100414.47;;;20.34;51.72
10668;BME280;5382;42.136;24.796;2022-10-20T09:40:43;100400.38;;;20.32;51.71
10668;BME280;5382;42.136;24.796;2022-10-20T09:43:15;100438.44;;;20.53;51.57
10668;BME280;5382;42.136;24.796;2022-10-20T09:45:49;100424.63;;;20.48;51.10
10668;BME280;5382;42.136;24.796;2022-10-20T09:48:20;100414.56;;;20.50;50.35
10668;BME280;5382;42.136;24.796;2022-10-20T09:50:52;100406.44;;;20.42;50.27
10668;BME280;5382;42.136;24.796;2022-10-20T09:53:25;100419.69;;;20.69;49.57
10668;BME280;5382;42.136;24.796;2022-10-20T09:55:53;100427.06;;;20.67;49.05
10668;BME280;5382;42.136;24.796;2022-10-20T09:58:23;100426.13;;;20.77;47.92
10668;BME280;5382;42.136;24.796;2022-10-20T10:00:58;100405.63;;;20.76;47.10
10668;BME280;5382;42.136;24.796;2022-10-20T10:03:26;100420.59;;;20.86;46.78
10668;BME280;5382;42.136;24.796;2022-10-20T10:05:56;100422.13;;;20.89;46.40
10668;BME280;5382;42.136;24.796;2022-10-20T10:08:25;100422.81;;;20.91;46.29
10668;BME280;5382;42.136;24.796;2022-10-20T10:11:01;100428.22;;;21.07;45.48
10668;BME280;5382;42.136;24.796;2022-10-20T10:13:30;100366.09;;;20.76;45.47
10668;BME280;5382;42.136;24.796;2022-10-20T10:16:00;100418.47;;;21.15;45.82
10668;BME280;5382;42.136;24.796;2022-10-20T10:18:27;100410.91;;;21.26;45.28
10668;BME280;5382;42.136;24.796;2022-10-20T10:21:01;100402.00;;;21.42;44.28
10668;BME280;5382;42.136;24.796;2022-10-20T10:23:30;100422.84;;;21.32;43.87
10668;BME280;5382;42.136;24.796;2022-10-20T10:25:58;100368.34;;;21.30;43.41
10668;BME280;5382;42.136;24.796;2022-10-20T10:28:33;100415.97;;;21.70;43.48
10668;BME280;5382;42.136;24.796;2022-10-20T10:31:11;100405.44;;;22.25;41.99
10668;BME280;5382;42.136;24.796;2022-10-20T10:33:44;100332.75;;;22.39;40.67
10668;BME280;5382;42.136;24.796;2022-10-20T10:36:17;100394.03;;;23.54;39.46
10668;BME280;5382;42.136;24.796;2022-10-20T10:38:47;100343.63;;;23.46;38.26
10668;BME280;5382;42.136;24.796;2022-10-20T10:41:20;100373.88;;;23.80;37.63
10668;BME280;5382;42.136;24.796;2022-10-20T10:43:58;100387.06;;;24.12;37.07
10668;BME280;5382;42.136;24.796;2022-10-20T10:46:34;100323.56;;;24.08;35.89
10668;BME280;5382;42.136;24.796;2022-10-20T10:49:25;100362.47;;;24.95;34.58
10668;BME280;5382;42.136;24.796;2022-10-20T10:52:03;100379.03;;;25.50;33.27
10668;BME280;5382;42.136;24.796;2022-10-20T10:54:53;100381.00;;;26.19;32.80
10668;BME280;5382;42.136;24.796;2022-10-20T10:57:26;100373.81;;;26.46;31.96
10668;BME280;5382;42.136;24.796;2022-10-20T10:59:58;100367.47;;;26.73;31.78
10668;BME280;5382;42.136;24.796;2022-10-20T11:02:54;100329.47;;;26.87;31.37
10668;BME280;5382;42.136;24.796;2022-10-20T11:05:48;100364.66;;;27.68;29.86
10668;BME280;5382;42.136;24.796;2022-10-20T11:11:19;100351.59;;;28.17;29.26
10668;BME280;5382;42.136;24.796;2022-10-20T11:13:54;100315.13;;;27.39;29.10
10668;BME280;5382;42.136;24.796;2022-10-20T11:16:32;100320.13;;;27.23;29.46
10668;BME280;5382;42.136;24.796;2022-10-20T11:19:47;100349.16;;;27.69;29.20
10668;BME280;5382;42.136;24.796;2022-10-20T11:22:27;100360.22;;;27.07;29.63
10668;BME280;5382;42.136;24.796;2022-10-20T11:25:06;100354.59;;;27.69;28.83
10668;BME280;5382;42.136;24.796;2022-10-20T11:27:37;100333.06;;;27.60;28.89
10668;BME280;5382;42.136;24.796;2022-10-20T11:30:12;100348.09;;;27.96;28.05
10668;BME280;5382;42.136;24.796;2022-10-20T11:32:45;100341.66;;;28.42;27.81
10668;BME280;5382;42.136;24.796;2022-10-20T11:35:20;100340.19;;;28.46;27.88
10668;BME280;5382;42.136;24.796;2022-10-20T11:37:54;100318.00;;;29.13;27.06
10668;BME280;5382;42.136;24.796;2022-10-20T11:40:27;100339.16;;;28.79;26.79
10668;BME280;5382;42.136;24.796;2022-10-20T11:43:02;100322.94;;;29.23;26.52
10668;BME280;5382;42.136;24.796;2022-10-20T11:45:38;100281.63;;;29.26;26.03
10668;BME280;5382;42.136;24.796;2022-10-20T11:48:14;100183.06;;;28.54;26.12
10668;BME280;5382;42.136;24.796;2022-10-20T11:50:51;100329.72;;;30.56;25.14
10668;BME280;5382;42.136;24.796;2022-10-20T11:53:38;100319.38;;;31.65;24.23
10668;BME280;5382;42.136;24.796;2022-10-20T11:56:28;100300.34;;;31.59;23.38
10668;BME280;5382;42.136;24.796;2022-10-20T11:59:18;100325.63;;;30.77;23.59
10668;BME280;5382;42.136;24.796;2022-10-20T12:04:54;100306.59;;;30.40;23.94
10668;BME280;5382;42.136;24.796;2022-10-20T12:07:36;100320.63;;;30.74;23.85
10668;BME280;5382;42.136;24.796;2022-10-20T12:10:23;100333.78;;;29.80;24.46
10668;BME280;5382;42.136;24.796;2022-10-20T12:13:05;100335.84;;;30.51;23.66
10668;BME280;5382;42.136;24.796;2022-10-20T12:15:44;100321.44;;;30.62;23.63
10668;BME280;5382;42.136;24.796;2022-10-20T12:18:22;100321.34;;;30.39;23.12
10668;BME280;5382;42.136;24.796;2022-10-20T12:20:52;100311.59;;;30.43;22.93
10668;BME280;5382;42.136;24.796;2022-10-20T12:23:53;100306.25;;;31.20;22.86
10668;BME280;5382;42.136;24.796;2022-10-20T12:29:57;100299.06;;;30.84;22.78
10668;BME280;5382;42.136;24.796;2022-10-20T12:32:53;100306.25;;;31.08;22.15
10668;BME280;5382;42.136;24.796;2022-10-20T12:38:25;100287.13;;;31.32;21.75
10668;BME280;5382;42.136;24.796;2022-10-20T12:40:55;100291.84;;;31.96;21.93
10668;BME280;5382;42.136;24.796;2022-10-20T12:43:28;100293.09;;;32.57;20.95
10668;BME280;5382;42.136;24.796;2022-10-20T12:46:02;100251.59;;;32.36;20.79
10668;BME280;5382;42.136;24.796;2022-10-20T12:48:32;100299.47;;;32.34;21.06
10668;BME280;5382;42.136;24.796;2022-10-20T12:51:03;100300.56;;;31.81;21.31
10668;BME280;5382;42.136;24.796;2022-10-20T12:53:33;100261.03;;;32.29;20.88
10668;BME280;5382;42.136;24.796;2022-10-20T12:56:04;100258.19;;;31.95;21.16
10668;BME280;5382;42.136;24.796;2022-10-20T12:58:33;100306.16;;;32.26;21.34
10668;BME280;5382;42.136;24.796;2022-10-20T13:01:12;100285.06;;;33.01;20.70
10668;BME280;5382;42.136;24.796;2022-10-20T13:03:42;100300.47;;;33.36;20.39
10668;BME280;5382;42.136;24.796;2022-10-20T13:06:40;100297.88;;;33.46;20.12
10668;BME280;5382;42.136;24.796;2022-10-20T13:09:17;100253.25;;;33.17;20.14
10668;BME280;5382;42.136;24.796;2022-10-20T13:12:00;100292.28;;;33.75;19.71
10668;BME280;5382;42.136;24.796;2022-10-20T13:14:45;100286.09;;;33.12;20.17
10668;BME280;5382;42.136;24.796;2022-10-20T13:17:27;100294.75;;;33.54;20.23
10668;BME280;5382;42.136;24.796;2022-10-20T13:20:00;100285.00;;;34.07;19.58
10668;BME280;5382;42.136;24.796;2022-10-20T13:22:40;100284.56;;;33.72;19.49
10668;BME280;5382;42.136;24.796;2022-10-20T13:25:31;100297.28;;;32.76;20.22
10668;BME280;5382;42.136;24.796;2022-10-20T13:28:11;100277.47;;;32.57;20.80
10668;BME280;5382;42.136;24.796;2022-10-20T13:30:53;100296.47;;;32.93;20.17
10668;BME280;5382;42.136;24.796;2022-10-20T13:33:30;100247.63;;;33.23;19.70
10668;BME280;5382;42.136;24.796;2022-10-20T13:36:02;100267.25;;;33.93;19.50
10668;BME280;5382;42.136;24.796;2022-10-20T13:38:37;100299.56;;;34.84;20.08
10668;BME280;5382;42.136;24.796;2022-10-20T13:41:10;100259.69;;;33.06;20.03
10668;BME280;5382;42.136;24.796;2022-10-20T13:43:47;100302.69;;;33.73;20.37
10668;BME280;5382;42.136;24.796;2022-10-20T13:46:33;100300.97;;;33.88;19.39
10668;BME280;5382;42.136;24.796;2022-10-20T13:49:16;100293.22;;;34.57;19.44
10668;BME280;5382;42.136;24.796;2022-10-20T13:51:47;100296.41;;;34.43;19.36
10668;BME280;5382;42.136;24.796;2022-10-20T13:54:19;100287.91;;;33.79;19.58
10668;BME280;5382;42.136;24.796;2022-10-20T13:56:49;100291.88;;;33.66;19.66
10668;BME280;5382;42.136;24.796;2022-10-20T13:59:20;100266.38;;;33.32;19.78
10668;BME280;5382;42.136;24.796;2022-10-20T14:01:49;100307.94;;;33.40;19.79
10668;BME280;5382;42.136;24.796;2022-10-20T14:04:26;100304.03;;;33.36;19.57
10668;BME280;5382;42.136;24.796;2022-10-20T14:06:53;100309.03;;;33.22;19.81
10668;BME280;5382;42.136;24.796;2022-10-20T14:09:24;100274.38;;;33.33;19.47
10668;BME280;5382;42.136;24.796;2022-10-20T14:11:53;100277.59;;;32.79;20.05
10668;BME280;5382;42.136;24.796;2022-10-20T14:14:23;100303.88;;;33.09;19.92
10668;BME280;5382;42.136;24.796;2022-10-20T14:16:53;100307.94;;;33.40;19.77
10668;BME280;5382;42.136;24.796;2022-10-20T14:19:24;100302.44;;;33.40;19.21
10668;BME280;5382;42.136;24.796;2022-10-20T14:21:53;100301.38;;;33.41;19.57
10668;BME280;5382;42.136;24.796;2022-10-20T14:24:27;100287.66;;;32.45;20.44
10668;BME280;5382;42.136;24.796;2022-10-20T14:26:56;100291.56;;;32.49;20.46
10668;BME280;5382;42.136;24.796;2022-10-20T14:29:26;100309.22;;;32.42;20.53
10668;BME280;5382;42.136;24.796;2022-10-20T14:31:54;100309.78;;;32.55;19.99